< < Back
Terminal Aerodrome Forecast


Current Version              Previous Versions:   1  2  3  4  5  6  7  8  9  

Terminal Aerodrome Forecast

938
FTUS42 KMLB 050237 AAA
TAFMCO
TAF AMD
KMCO 050237Z 0503/0524 00000KT P6SM SCT250
     FM051400 22006KT P6SM FEW040 SCT250
      TEMPO 0518/0521 P6SM TS BKN045CB BKN100=

Latest METAR

939
SAUS70 KWBC 050216
MTRMCO
METAR KMCO 050153Z 00000KT 10SM FEW250 25/25 A3008 RMK AO2 SLP183
T02500250


USA.gov is the U.S. government's official web portal to all federal, state and local government web resources and services.